sensor_id;sensor_type;location;lat;lon;timestamp;P1;durP1;ratioP1;P2;durP2;ratioP2
12818;SDS011;6474;53.474;9.894;2023-12-14T00:01:58;0.67;;;0.40;;
12818;SDS011;6474;53.474;9.894;2023-12-14T00:04:26;0.80;;;0.80;;
12818;SDS011;6474;53.474;9.894;2023-12-14T00:06:54;0.50;;;0.50;;
12818;SDS011;6474;53.474;9.894;2023-12-14T00:09:21;0.70;;;0.70;;
12818;SDS011;6474;53.474;9.894;2023-12-14T00:11:49;0.70;;;0.70;;
12818;SDS011;6474;53.474;9.894;2023-12-14T00:14:17;0.50;;;0.50;;
12818;SDS011;6474;53.474;9.894;2023-12-14T00:16:46;0.53;;;0.53;;
12818;SDS011;6474;53.474;9.894;2023-12-14T00:19:15;0.40;;;0.40;;
12818;SDS011;6474;53.474;9.894;2023-12-14T00:21:44;0.20;;;0.20;;
12818;SDS011;6474;53.474;9.894;2023-12-14T00:24:11;0.60;;;0.60;;
12818;SDS011;6474;53.474;9.894;2023-12-14T00:26:39;0.70;;;0.70;;
12818;SDS011;6474;53.474;9.894;2023-12-14T00:29:07;0.60;;;0.60;;
12818;SDS011;6474;53.474;9.894;2023-12-14T00:31:35;0.20;;;0.20;;
12818;SDS011;6474;53.474;9.894;2023-12-14T00:34:04;0.50;;;0.50;;
12818;SDS011;6474;53.474;9.894;2023-12-14T00:36:32;0.37;;;0.37;;
12818;SDS011;6474;53.474;9.894;2023-12-14T00:39:00;0.50;;;0.50;;
12818;SDS011;6474;53.474;9.894;2023-12-14T00:41:28;0.17;;;0.17;;
12818;SDS011;6474;53.474;9.894;2023-12-14T00:43:56;0.30;;;0.30;;
12818;SDS011;6474;53.474;9.894;2023-12-14T00:46:24;0.23;;;0.23;;
12818;SDS011;6474;53.474;9.894;2023-12-14T00:48:52;5.80;;;0.90;;
12818;SDS011;6474;53.474;9.894;2023-12-14T00:51:22;0.20;;;0.20;;
12818;SDS011;6474;53.474;9.894;2023-12-14T00:53:49;0.67;;;0.50;;
12818;SDS011;6474;53.474;9.894;2023-12-14T00:56:17;0.30;;;0.30;;
12818;SDS011;6474;53.474;9.894;2023-12-14T00:58:47;0.83;;;0.50;;
12818;SDS011;6474;53.474;9.894;2023-12-14T01:01:15;0.30;;;0.30;;
12818;SDS011;6474;53.474;9.894;2023-12-14T01:03:43;0.27;;;0.27;;
12818;SDS011;6474;53.474;9.894;2023-12-14T01:06:11;0.20;;;0.20;;
12818;SDS011;6474;53.474;9.894;2023-12-14T01:08:40;0.53;;;0.53;;
12818;SDS011;6474;53.474;9.894;2023-12-14T01:11:08;1.23;;;0.70;;
12818;SDS011;6474;53.474;9.894;2023-12-14T01:13:37;0.40;;;0.40;;
12818;SDS011;6474;53.474;9.894;2023-12-14T01:16:05;0.37;;;0.37;;
12818;SDS011;6474;53.474;9.894;2023-12-14T01:18:33;0.60;;;0.60;;
12818;SDS011;6474;53.474;9.894;2023-12-14T01:21:01;0.20;;;0.20;;
12818;SDS011;6474;53.474;9.894;2023-12-14T01:23:29;0.40;;;0.40;;
12818;SDS011;6474;53.474;9.894;2023-12-14T01:25:59;0.63;;;0.63;;
12818;SDS011;6474;53.474;9.894;2023-12-14T01:28:27;0.30;;;0.30;;
12818;SDS011;6474;53.474;9.894;2023-12-14T01:30:55;1.27;;;0.90;;
12818;SDS011;6474;53.474;9.894;2023-12-14T01:33:24;0.30;;;0.30;;
12818;SDS011;6474;53.474;9.894;2023-12-14T01:35:52;0.30;;;0.30;;
12818;SDS011;6474;53.474;9.894;2023-12-14T01:38:19;0.30;;;0.30;;
12818;SDS011;6474;53.474;9.894;2023-12-14T01:40:47;2.60;;;0.70;;
12818;SDS011;6474;53.474;9.894;2023-12-14T01:43:16;5.93;;;0.63;;
12818;SDS011;6474;53.474;9.894;2023-12-14T01:45:44;0.40;;;0.40;;
12818;SDS011;6474;53.474;9.894;2023-12-14T01:48:15;0.30;;;0.30;;
12818;SDS011;6474;53.474;9.894;2023-12-14T01:50:43;0.37;;;0.37;;
12818;SDS011;6474;53.474;9.894;2023-12-14T01:53:11;0.30;;;0.30;;
12818;SDS011;6474;53.474;9.894;2023-12-14T01:55:39;0.23;;;0.23;;
12818;SDS011;6474;53.474;9.894;2023-12-14T01:58:07;0.27;;;0.27;;
12818;SDS011;6474;53.474;9.894;2023-12-14T02:00:38;0.40;;;0.40;;
12818;SDS011;6474;53.474;9.894;2023-12-14T02:03:10;0.67;;;0.47;;
12818;SDS011;6474;53.474;9.894;2023-12-14T02:05:37;0.33;;;0.33;;
12818;SDS011;6474;53.474;9.894;2023-12-14T02:08:05;0.20;;;0.20;;
12818;SDS011;6474;53.474;9.894;2023-12-14T02:10:33;0.33;;;0.33;;
12818;SDS011;6474;53.474;9.894;2023-12-14T02:13:02;0.13;;;0.13;;
12818;SDS011;6474;53.474;9.894;2023-12-14T02:15:29;1.17;;;0.43;;
12818;SDS011;6474;53.474;9.894;2023-12-14T02:17:59;0.30;;;0.30;;
12818;SDS011;6474;53.474;9.894;2023-12-14T02:20:27;0.40;;;0.40;;
12818;SDS011;6474;53.474;9.894;2023-12-14T02:22:56;0.17;;;0.10;;
12818;SDS011;6474;53.474;9.894;2023-12-14T02:25:24;0.10;;;0.10;;
12818;SDS011;6474;53.474;9.894;2023-12-14T02:27:52;0.20;;;0.20;;
12818;SDS011;6474;53.474;9.894;2023-12-14T02:30:20;0.57;;;0.30;;
12818;SDS011;6474;53.474;9.894;2023-12-14T02:32:48;0.07;;;0.07;;
12818;SDS011;6474;53.474;9.894;2023-12-14T02:35:15;0.23;;;0.23;;
12818;SDS011;6474;53.474;9.894;2023-12-14T02:37:44;0.10;;;0.10;;
12818;SDS011;6474;53.474;9.894;2023-12-14T02:40:13;0.33;;;0.33;;
12818;SDS011;6474;53.474;9.894;2023-12-14T02:42:41;0.20;;;0.20;;
12818;SDS011;6474;53.474;9.894;2023-12-14T02:45:09;0.30;;;0.30;;
12818;SDS011;6474;53.474;9.894;2023-12-14T02:47:37;0.20;;;0.20;;
12818;SDS011;6474;53.474;9.894;2023-12-14T02:50:06;0.67;;;0.43;;
12818;SDS011;6474;53.474;9.894;2023-12-14T02:52:34;0.50;;;0.50;;
12818;SDS011;6474;53.474;9.894;2023-12-14T02:55:03;0.97;;;0.67;;
12818;SDS011;6474;53.474;9.894;2023-12-14T02:57:33;0.17;;;0.17;;
12818;SDS011;6474;53.474;9.894;2023-12-14T03:00:01;0.23;;;0.23;;
12818;SDS011;6474;53.474;9.894;2023-12-14T03:02:29;0.37;;;0.37;;
12818;SDS011;6474;53.474;9.894;2023-12-14T03:04:57;0.20;;;0.20;;
12818;SDS011;6474;53.474;9.894;2023-12-14T03:07:25;0.20;;;0.20;;
12818;SDS011;6474;53.474;9.894;2023-12-14T03:09:53;0.40;;;0.40;;
12818;SDS011;6474;53.474;9.894;2023-12-14T03:12:21;0.40;;;0.40;;
12818;SDS011;6474;53.474;9.894;2023-12-14T03:14:50;0.20;;;0.20;;
12818;SDS011;6474;53.474;9.894;2023-12-14T03:17:18;0.23;;;0.23;;
12818;SDS011;6474;53.474;9.894;2023-12-14T03:19:46;9.43;;;0.63;;
12818;SDS011;6474;53.474;9.894;2023-12-14T03:22:14;0.10;;;0.10;;
12818;SDS011;6474;53.474;9.894;2023-12-14T03:24:44;0.20;;;0.20;;
12818;SDS011;6474;53.474;9.894;2023-12-14T03:27:12;0.67;;;0.67;;
12818;SDS011;6474;53.474;9.894;2023-12-14T03:29:39;0.30;;;0.30;;
12818;SDS011;6474;53.474;9.894;2023-12-14T03:32:08;0.33;;;0.33;;
12818;SDS011;6474;53.474;9.894;2023-12-14T03:34:36;0.43;;;0.43;;
12818;SDS011;6474;53.474;9.894;2023-12-14T03:37:04;2.43;;;0.70;;
12818;SDS011;6474;53.474;9.894;2023-12-14T03:39:32;0.43;;;0.43;;
12818;SDS011;6474;53.474;9.894;2023-12-14T03:42:00;0.33;;;0.33;;
12818;SDS011;6474;53.474;9.894;2023-12-14T03:44:28;0.40;;;0.40;;
12818;SDS011;6474;53.474;9.894;2023-12-14T03:46:56;0.40;;;0.40;;
12818;SDS011;6474;53.474;9.894;2023-12-14T03:49:27;0.40;;;0.40;;
12818;SDS011;6474;53.474;9.894;2023-12-14T03:51:55;0.30;;;0.30;;
12818;SDS011;6474;53.474;9.894;2023-12-14T03:54:23;0.30;;;0.30;;
12818;SDS011;6474;53.474;9.894;2023-12-14T03:56:51;0.40;;;0.40;;
12818;SDS011;6474;53.474;9.894;2023-12-14T03:59:19;0.50;;;0.50;;
12818;SDS011;6474;53.474;9.894;2023-12-14T04:01:46;0.53;;;0.53;;
12818;SDS011;6474;53.474;9.894;2023-12-14T04:04:14;0.43;;;0.43;;
12818;SDS011;6474;53.474;9.894;2023-12-14T04:06:43;0.20;;;0.20;;
12818;SDS011;6474;53.474;9.894;2023-12-14T04:09:11;0.40;;;0.40;;
12818;SDS011;6474;53.474;9.894;2023-12-14T04:11:39;0.50;;;0.50;;
12818;SDS011;6474;53.474;9.894;2023-12-14T04:14:07;1.43;;;0.47;;
12818;SDS011;6474;53.474;9.894;2023-12-14T04:16:35;0.30;;;0.30;;
12818;SDS011;6474;53.474;9.894;2023-12-14T04:19:03;0.30;;;0.30;;
12818;SDS011;6474;53.474;9.894;2023-12-14T04:21:36;0.40;;;0.40;;
12818;SDS011;6474;53.474;9.894;2023-12-14T04:24:05;0.13;;;0.13;;
12818;SDS011;6474;53.474;9.894;2023-12-14T04:26:35;0.30;;;0.30;;
12818;SDS011;6474;53.474;9.894;2023-12-14T04:29:03;5.67;;;0.50;;
12818;SDS011;6474;53.474;9.894;2023-12-14T04:31:32;4.33;;;0.30;;
12818;SDS011;6474;53.474;9.894;2023-12-14T04:34:00;0.23;;;0.23;;
12818;SDS011;6474;53.474;9.894;2023-12-14T04:36:28;0.30;;;0.30;;
12818;SDS011;6474;53.474;9.894;2023-12-14T04:38:56;0.40;;;0.40;;
12818;SDS011;6474;53.474;9.894;2023-12-14T04:41:25;0.23;;;0.23;;
12818;SDS011;6474;53.474;9.894;2023-12-14T04:43:53;0.33;;;0.33;;
12818;SDS011;6474;53.474;9.894;2023-12-14T04:46:21;0.60;;;0.30;;
12818;SDS011;6474;53.474;9.894;2023-12-14T04:48:49;0.30;;;0.30;;
12818;SDS011;6474;53.474;9.894;2023-12-14T04:51:17;0.30;;;0.30;;
12818;SDS011;6474;53.474;9.894;2023-12-14T04:53:45;0.23;;;0.23;;
12818;SDS011;6474;53.474;9.894;2023-12-14T04:56:13;5.40;;;0.60;;
12818;SDS011;6474;53.474;9.894;2023-12-14T04:58:42;0.30;;;0.30;;
12818;SDS011;6474;53.474;9.894;2023-12-14T05:01:10;0.57;;;0.50;;
12818;SDS011;6474;53.474;9.894;2023-12-14T05:03:39;0.40;;;0.40;;
12818;SDS011;6474;53.474;9.894;2023-12-14T05:06:07;1.50;;;0.47;;
12818;SDS011;6474;53.474;9.894;2023-12-14T05:08:35;0.60;;;0.60;;
12818;SDS011;6474;53.474;9.894;2023-12-14T05:11:03;0.40;;;0.40;;
12818;SDS011;6474;53.474;9.894;2023-12-14T05:13:31;0.53;;;0.53;;
12818;SDS011;6474;53.474;9.894;2023-12-14T05:16:00;0.30;;;0.30;;
12818;SDS011;6474;53.474;9.894;2023-12-14T05:18:28;2.83;;;0.90;;
12818;SDS011;6474;53.474;9.894;2023-12-14T05:20:56;0.33;;;0.33;;
12818;SDS011;6474;53.474;9.894;2023-12-14T05:23:24;0.67;;;0.67;;
12818;SDS011;6474;53.474;9.894;2023-12-14T05:25:52;0.50;;;0.50;;
12818;SDS011;6474;53.474;9.894;2023-12-14T05:28:20;0.57;;;0.57;;
12818;SDS011;6474;53.474;9.894;2023-12-14T05:30:48;0.50;;;0.50;;
12818;SDS011;6474;53.474;9.894;2023-12-14T05:33:18;0.77;;;0.60;;
12818;SDS011;6474;53.474;9.894;2023-12-14T05:35:46;0.50;;;0.50;;
12818;SDS011;6474;53.474;9.894;2023-12-14T05:38:13;0.50;;;0.50;;
12818;SDS011;6474;53.474;9.894;2023-12-14T05:40:41;0.60;;;0.60;;
12818;SDS011;6474;53.474;9.894;2023-12-14T05:43:10;18.87;;;1.10;;
12818;SDS011;6474;53.474;9.894;2023-12-14T05:45:38;0.40;;;0.40;;
12818;SDS011;6474;53.474;9.894;2023-12-14T05:48:06;2.33;;;0.63;;
12818;SDS011;6474;53.474;9.894;2023-12-14T05:50:35;0.27;;;0.27;;
12818;SDS011;6474;53.474;9.894;2023-12-14T05:53:04;0.70;;;0.70;;
12818;SDS011;6474;53.474;9.894;2023-12-14T05:55:31;0.50;;;0.50;;
12818;SDS011;6474;53.474;9.894;2023-12-14T05:57:59;0.43;;;0.43;;
12818;SDS011;6474;53.474;9.894;2023-12-14T06:00:27;0.70;;;0.63;;
12818;SDS011;6474;53.474;9.894;2023-12-14T06:02:55;0.53;;;0.53;;
12818;SDS011;6474;53.474;9.894;2023-12-14T06:05:23;0.50;;;0.50;;
12818;SDS011;6474;53.474;9.894;2023-12-14T06:07:53;0.40;;;0.40;;
12818;SDS011;6474;53.474;9.894;2023-12-14T06:10:21;0.47;;;0.47;;
12818;SDS011;6474;53.474;9.894;2023-12-14T06:12:49;0.53;;;0.50;;
12818;SDS011;6474;53.474;9.894;2023-12-14T06:15:17;0.47;;;0.47;;
12818;SDS011;6474;53.474;9.894;2023-12-14T06:17:44;0.60;;;0.60;;
12818;SDS011;6474;53.474;9.894;2023-12-14T06:20:13;0.80;;;0.80;;
12818;SDS011;6474;53.474;9.894;2023-12-14T06:22:41;4.53;;;0.27;;
12818;SDS011;6474;53.474;9.894;2023-12-14T06:25:10;0.40;;;0.40;;
12818;SDS011;6474;53.474;9.894;2023-12-14T06:27:38;3.90;;;1.07;;
12818;SDS011;6474;53.474;9.894;2023-12-14T06:30:06;2.77;;;0.67;;
12818;SDS011;6474;53.474;9.894;2023-12-14T06:32:36;0.90;;;0.90;;
12818;SDS011;6474;53.474;9.894;2023-12-14T06:35:04;0.80;;;0.80;;
12818;SDS011;6474;53.474;9.894;2023-12-14T06:37:33;0.30;;;0.30;;
12818;SDS011;6474;53.474;9.894;2023-12-14T06:40:01;1.80;;;0.63;;
12818;SDS011;6474;53.474;9.894;2023-12-14T06:42:30;0.50;;;0.50;;
12818;SDS011;6474;53.474;9.894;2023-12-14T06:44:59;0.87;;;0.87;;
12818;SDS011;6474;53.474;9.894;2023-12-14T06:47:29;0.43;;;0.43;;
12818;SDS011;6474;53.474;9.894;2023-12-14T06:49:57;0.97;;;0.77;;
12818;SDS011;6474;53.474;9.894;2023-12-14T06:52:26;0.50;;;0.50;;
12818;SDS011;6474;53.474;9.894;2023-12-14T06:54:54;2.10;;;1.03;;
12818;SDS011;6474;53.474;9.894;2023-12-14T06:57:22;0.80;;;0.80;;
12818;SDS011;6474;53.474;9.894;2023-12-14T06:59:54;0.90;;;0.87;;
12818;SDS011;6474;53.474;9.894;2023-12-14T07:02:22;0.50;;;0.50;;
12818;SDS011;6474;53.474;9.894;2023-12-14T07:04:50;0.50;;;0.50;;
12818;SDS011;6474;53.474;9.894;2023-12-14T07:07:17;0.63;;;0.63;;
12818;SDS011;6474;53.474;9.894;2023-12-14T07:09:45;0.80;;;0.80;;
12818;SDS011;6474;53.474;9.894;2023-12-14T07:12:13;1.30;;;0.83;;
12818;SDS011;6474;53.474;9.894;2023-12-14T07:14:41;0.97;;;0.97;;
12818;SDS011;6474;53.474;9.894;2023-12-14T07:17:10;0.70;;;0.70;;
12818;SDS011;6474;53.474;9.894;2023-12-14T07:19:38;2.30;;;1.23;;
12818;SDS011;6474;53.474;9.894;2023-12-14T07:22:06;1.43;;;1.07;;
12818;SDS011;6474;53.474;9.894;2023-12-14T07:24:34;1.00;;;1.00;;
12818;SDS011;6474;53.474;9.894;2023-12-14T07:27:14;0.97;;;0.97;;
12818;SDS011;6474;53.474;9.894;2023-12-14T07:29:42;0.90;;;0.90;;
12818;SDS011;6474;53.474;9.894;2023-12-14T07:32:11;0.97;;;0.97;;
12818;SDS011;6474;53.474;9.894;2023-12-14T07:34:39;1.13;;;1.00;;
12818;SDS011;6474;53.474;9.894;2023-12-14T07:37:07;2.30;;;1.20;;
12818;SDS011;6474;53.474;9.894;2023-12-14T07:39:35;0.60;;;0.60;;
12818;SDS011;6474;53.474;9.894;2023-12-14T07:42:03;2.07;;;1.17;;
12818;SDS011;6474;53.474;9.894;2023-12-14T07:44:31;1.30;;;1.20;;
12818;SDS011;6474;53.474;9.894;2023-12-14T07:47:00;0.97;;;0.97;;
12818;SDS011;6474;53.474;9.894;2023-12-14T07:49:30;1.90;;;0.80;;
12818;SDS011;6474;53.474;9.894;2023-12-14T07:51:58;2.90;;;1.50;;
12818;SDS011;6474;53.474;9.894;2023-12-14T07:54:26;0.90;;;0.90;;
12818;SDS011;6474;53.474;9.894;2023-12-14T07:56:54;0.60;;;0.60;;
12818;SDS011;6474;53.474;9.894;2023-12-14T07:59:23;1.27;;;1.27;;
12818;SDS011;6474;53.474;9.894;2023-12-14T08:01:51;0.93;;;0.93;;
12818;SDS011;6474;53.474;9.894;2023-12-14T08:04:18;0.83;;;0.83;;
12818;SDS011;6474;53.474;9.894;2023-12-14T08:06:48;1.00;;;1.00;;
12818;SDS011;6474;53.474;9.894;2023-12-14T08:09:15;0.90;;;0.90;;
12818;SDS011;6474;53.474;9.894;2023-12-14T08:11:43;1.07;;;1.03;;
12818;SDS011;6474;53.474;9.894;2023-12-14T08:14:11;1.40;;;1.07;;
12818;SDS011;6474;53.474;9.894;2023-12-14T08:16:39;0.70;;;0.70;;
12818;SDS011;6474;53.474;9.894;2023-12-14T08:19:07;1.23;;;1.20;;
12818;SDS011;6474;53.474;9.894;2023-12-14T08:21:35;2.13;;;1.33;;
12818;SDS011;6474;53.474;9.894;2023-12-14T08:24:04;1.10;;;1.07;;
12818;SDS011;6474;53.474;9.894;2023-12-14T08:26:32;1.10;;;1.10;;
12818;SDS011;6474;53.474;9.894;2023-12-14T08:29:00;0.60;;;0.60;;
12818;SDS011;6474;53.474;9.894;2023-12-14T08:31:28;0.90;;;0.90;;
12818;SDS011;6474;53.474;9.894;2023-12-14T08:33:56;0.83;;;0.83;;
12818;SDS011;6474;53.474;9.894;2023-12-14T08:36:24;1.50;;;1.10;;
12818;SDS011;6474;53.474;9.894;2023-12-14T08:38:52;1.30;;;1.30;;
12818;SDS011;6474;53.474;9.894;2023-12-14T08:41:21;1.53;;;1.40;;
12818;SDS011;6474;53.474;9.894;2023-12-14T08:43:49;1.07;;;1.07;;
12818;SDS011;6474;53.474;9.894;2023-12-14T08:46:17;0.90;;;0.90;;
12818;SDS011;6474;53.474;9.894;2023-12-14T08:48:45;1.27;;;1.27;;
12818;SDS011;6474;53.474;9.894;2023-12-14T08:51:13;0.87;;;0.87;;
12818;SDS011;6474;53.474;9.894;2023-12-14T08:53:41;0.77;;;0.77;;
12818;SDS011;6474;53.474;9.894;2023-12-14T08:56:09;0.93;;;0.93;;
12818;SDS011;6474;53.474;9.894;2023-12-14T08:58:39;0.93;;;0.93;;
12818;SDS011;6474;53.474;9.894;2023-12-14T09:01:06;1.57;;;1.33;;
12818;SDS011;6474;53.474;9.894;2023-12-14T09:03:34;0.83;;;0.83;;
12818;SDS011;6474;53.474;9.894;2023-12-14T09:06:03;1.60;;;1.30;;
12818;SDS011;6474;53.474;9.894;2023-12-14T09:08:32;0.70;;;0.70;;
12818;SDS011;6474;53.474;9.894;2023-12-14T09:10:59;1.50;;;1.50;;
12818;SDS011;6474;53.474;9.894;2023-12-14T09:13:27;8.77;;;1.23;;
12818;SDS011;6474;53.474;9.894;2023-12-14T09:15:56;1.27;;;1.27;;
12818;SDS011;6474;53.474;9.894;2023-12-14T09:18:24;1.33;;;1.17;;
12818;SDS011;6474;53.474;9.894;2023-12-14T09:20:52;1.47;;;1.30;;
12818;SDS011;6474;53.474;9.894;2023-12-14T09:23:20;1.10;;;1.10;;
12818;SDS011;6474;53.474;9.894;2023-12-14T09:25:48;0.90;;;0.90;;
12818;SDS011;6474;53.474;9.894;2023-12-14T09:28:17;1.80;;;1.03;;
12818;SDS011;6474;53.474;9.894;2023-12-14T09:30:45;1.10;;;1.10;;
12818;SDS011;6474;53.474;9.894;2023-12-14T09:33:14;0.93;;;0.93;;
12818;SDS011;6474;53.474;9.894;2023-12-14T09:35:42;1.30;;;1.30;;
12818;SDS011;6474;53.474;9.894;2023-12-14T09:38:11;0.97;;;0.93;;
12818;SDS011;6474;53.474;9.894;2023-12-14T09:40:43;1.10;;;1.10;;
12818;SDS011;6474;53.474;9.894;2023-12-14T09:43:11;0.77;;;0.77;;
12818;SDS011;6474;53.474;9.894;2023-12-14T09:45:40;1.20;;;0.87;;
12818;SDS011;6474;53.474;9.894;2023-12-14T09:48:11;0.87;;;0.87;;
12818;SDS011;6474;53.474;9.894;2023-12-14T09:50:42;1.00;;;1.00;;
12818;SDS011;6474;53.474;9.894;2023-12-14T09:53:11;1.27;;;1.27;;
12818;SDS011;6474;53.474;9.894;2023-12-14T09:55:39;0.80;;;0.80;;
12818;SDS011;6474;53.474;9.894;2023-12-14T09:58:07;1.30;;;1.23;;
12818;SDS011;6474;53.474;9.894;2023-12-14T10:00:37;1.00;;;1.00;;
12818;SDS011;6474;53.474;9.894;2023-12-14T10:03:20;1.47;;;1.10;;
12818;SDS011;6474;53.474;9.894;2023-12-14T10:05:50;1.50;;;1.50;;
12818;SDS011;6474;53.474;9.894;2023-12-14T10:08:20;1.73;;;1.50;;
12818;SDS011;6474;53.474;9.894;2023-12-14T10:10:48;0.97;;;0.97;;
12818;SDS011;6474;53.474;9.894;2023-12-14T10:13:19;2.10;;;1.20;;
12818;SDS011;6474;53.474;9.894;2023-12-14T10:15:48;0.77;;;0.77;;
12818;SDS011;6474;53.474;9.894;2023-12-14T10:18:21;1.20;;;1.20;;
12818;SDS011;6474;53.474;9.894;2023-12-14T10:20:52;1.17;;;1.17;;
12818;SDS011;6474;53.474;9.894;2023-12-14T10:23:20;1.20;;;1.17;;
12818;SDS011;6474;53.474;9.894;2023-12-14T10:25:48;1.07;;;1.07;;
12818;SDS011;6474;53.474;9.894;2023-12-14T10:28:16;1.00;;;1.00;;
12818;SDS011;6474;53.474;9.894;2023-12-14T10:30:44;1.63;;;1.40;;
12818;SDS011;6474;53.474;9.894;2023-12-14T10:33:12;1.43;;;1.40;;
12818;SDS011;6474;53.474;9.894;2023-12-14T10:35:43;1.33;;;1.30;;
12818;SDS011;6474;53.474;9.894;2023-12-14T10:38:15;2.10;;;1.20;;
12818;SDS011;6474;53.474;9.894;2023-12-14T10:40:44;1.87;;;1.17;;
12818;SDS011;6474;53.474;9.894;2023-12-14T10:43:14;1.40;;;1.20;;
12818;SDS011;6474;53.474;9.894;2023-12-14T10:46:04;0.80;;;0.80;;
12818;SDS011;6474;53.474;9.894;2023-12-14T10:48:35;4.90;;;1.20;;
12818;SDS011;6474;53.474;9.894;2023-12-14T10:51:03;1.00;;;0.90;;
12818;SDS011;6474;53.474;9.894;2023-12-14T10:53:34;1.30;;;0.97;;
12818;SDS011;6474;53.474;9.894;2023-12-14T10:56:03;1.40;;;1.40;;
12818;SDS011;6474;53.474;9.894;2023-12-14T10:58:45;1.40;;;1.40;;
12818;SDS011;6474;53.474;9.894;2023-12-14T11:01:14;1.37;;;0.97;;
12818;SDS011;6474;53.474;9.894;2023-12-14T11:03:43;1.30;;;1.20;;
12818;SDS011;6474;53.474;9.894;2023-12-14T11:06:21;1.00;;;0.87;;
12818;SDS011;6474;53.474;9.894;2023-12-14T11:08:59;1.27;;;1.27;;
12818;SDS011;6474;53.474;9.894;2023-12-14T11:11:38;1.00;;;1.00;;
12818;SDS011;6474;53.474;9.894;2023-12-14T11:14:10;1.17;;;1.07;;
12818;SDS011;6474;53.474;9.894;2023-12-14T11:16:38;1.70;;;1.60;;
12818;SDS011;6474;53.474;9.894;2023-12-14T11:19:26;1.23;;;1.20;;
12818;SDS011;6474;53.474;9.894;2023-12-14T11:22:08;0.83;;;0.83;;
12818;SDS011;6474;53.474;9.894;2023-12-14T11:24:42;0.93;;;0.93;;
12818;SDS011;6474;53.474;9.894;2023-12-14T11:27:19;0.90;;;0.90;;
12818;SDS011;6474;53.474;9.894;2023-12-14T11:29:48;1.20;;;1.20;;
12818;SDS011;6474;53.474;9.894;2023-12-14T11:32:18;4.83;;;0.90;;
12818;SDS011;6474;53.474;9.894;2023-12-14T11:34:46;1.50;;;1.13;;
12818;SDS011;6474;53.474;9.894;2023-12-14T11:37:14;0.90;;;0.90;;
12818;SDS011;6474;53.474;9.894;2023-12-14T11:39:44;1.33;;;1.33;;
12818;SDS011;6474;53.474;9.894;2023-12-14T11:42:13;1.50;;;1.50;;
12818;SDS011;6474;53.474;9.894;2023-12-14T11:44:44;1.47;;;1.37;;
12818;SDS011;6474;53.474;9.894;2023-12-14T11:47:12;5.57;;;1.30;;
12818;SDS011;6474;53.474;9.894;2023-12-14T11:49:40;1.77;;;1.67;;
12818;SDS011;6474;53.474;9.894;2023-12-14T11:52:08;1.23;;;1.23;;
12818;SDS011;6474;53.474;9.894;2023-12-14T11:54:37;2.00;;;1.80;;
12818;SDS011;6474;53.474;9.894;2023-12-14T11:57:06;1.03;;;1.03;;
12818;SDS011;6474;53.474;9.894;2023-12-14T11:59:36;1.27;;;1.17;;
12818;SDS011;6474;53.474;9.894;2023-12-14T12:02:05;1.20;;;1.20;;
12818;SDS011;6474;53.474;9.894;2023-12-14T12:04:34;0.70;;;0.70;;
12818;SDS011;6474;53.474;9.894;2023-12-14T12:07:03;1.00;;;1.00;;
12818;SDS011;6474;53.474;9.894;2023-12-14T12:09:34;0.90;;;0.90;;
12818;SDS011;6474;53.474;9.894;2023-12-14T12:12:06;0.80;;;0.80;;
12818;SDS011;6474;53.474;9.894;2023-12-14T12:14:35;1.00;;;1.00;;
12818;SDS011;6474;53.474;9.894;2023-12-14T12:17:04;1.03;;;1.03;;
12818;SDS011;6474;53.474;9.894;2023-12-14T12:19:33;0.87;;;0.87;;
12818;SDS011;6474;53.474;9.894;2023-12-14T12:22:01;1.17;;;1.17;;
12818;SDS011;6474;53.474;9.894;2023-12-14T12:24:30;1.30;;;0.87;;
12818;SDS011;6474;53.474;9.894;2023-12-14T12:27:00;0.87;;;0.87;;
12818;SDS011;6474;53.474;9.894;2023-12-14T12:29:29;1.00;;;1.00;;
12818;SDS011;6474;53.474;9.894;2023-12-14T12:31:58;1.33;;;1.33;;
12818;SDS011;6474;53.474;9.894;2023-12-14T12:34:26;2.93;;;1.20;;
12818;SDS011;6474;53.474;9.894;2023-12-14T12:36:54;1.67;;;1.20;;
12818;SDS011;6474;53.474;9.894;2023-12-14T12:39:23;2.53;;;1.77;;
12818;SDS011;6474;53.474;9.894;2023-12-14T12:41:53;0.87;;;0.87;;
12818;SDS011;6474;53.474;9.894;2023-12-14T12:44:20;1.03;;;1.03;;
12818;SDS011;6474;53.474;9.894;2023-12-14T12:46:50;1.03;;;1.03;;
12818;SDS011;6474;53.474;9.894;2023-12-14T12:49:33;1.57;;;1.47;;
12818;SDS011;6474;53.474;9.894;2023-12-14T12:52:01;1.33;;;1.00;;
12818;SDS011;6474;53.474;9.894;2023-12-14T12:54:30;0.67;;;0.67;;
12818;SDS011;6474;53.474;9.894;2023-12-14T12:56:58;0.90;;;0.90;;
12818;SDS011;6474;53.474;9.894;2023-12-14T12:59:26;1.30;;;1.30;;
12818;SDS011;6474;53.474;9.894;2023-12-14T13:01:55;1.10;;;1.00;;
12818;SDS011;6474;53.474;9.894;2023-12-14T13:04:24;1.50;;;1.40;;
12818;SDS011;6474;53.474;9.894;2023-12-14T13:06:52;5.73;;;2.37;;
12818;SDS011;6474;53.474;9.894;2023-12-14T13:09:21;2.10;;;1.90;;
12818;SDS011;6474;53.474;9.894;2023-12-14T13:11:49;1.50;;;1.40;;
12818;SDS011;6474;53.474;9.894;2023-12-14T13:14:17;1.30;;;1.30;;
12818;SDS011;6474;53.474;9.894;2023-12-14T13:16:45;2.30;;;1.53;;
12818;SDS011;6474;53.474;9.894;2023-12-14T13:19:15;1.20;;;1.20;;
12818;SDS011;6474;53.474;9.894;2023-12-14T13:21:43;1.40;;;1.20;;
12818;SDS011;6474;53.474;9.894;2023-12-14T13:24:11;1.03;;;0.93;;
12818;SDS011;6474;53.474;9.894;2023-12-14T13:26:39;1.43;;;1.43;;
12818;SDS011;6474;53.474;9.894;2023-12-14T13:29:07;0.83;;;0.83;;
12818;SDS011;6474;53.474;9.894;2023-12-14T13:31:34;1.00;;;1.00;;
12818;SDS011;6474;53.474;9.894;2023-12-14T13:34:02;0.80;;;0.80;;
12818;SDS011;6474;53.474;9.894;2023-12-14T13:36:32;2.37;;;1.60;;
12818;SDS011;6474;53.474;9.894;2023-12-14T13:39:00;0.90;;;0.90;;
12818;SDS011;6474;53.474;9.894;2023-12-14T13:41:29;1.20;;;1.20;;
12818;SDS011;6474;53.474;9.894;2023-12-14T13:44:15;1.30;;;1.30;;
12818;SDS011;6474;53.474;9.894;2023-12-14T13:46:43;0.60;;;0.60;;
12818;SDS011;6474;53.474;9.894;2023-12-14T13:49:11;1.00;;;1.00;;
12818;SDS011;6474;53.474;9.894;2023-12-14T13:51:40;1.60;;;1.50;;
12818;SDS011;6474;53.474;9.894;2023-12-14T13:54:08;11.60;;;1.77;;
12818;SDS011;6474;53.474;9.894;2023-12-14T13:56:36;5.33;;;1.50;;
12818;SDS011;6474;53.474;9.894;2023-12-14T13:59:04;1.33;;;1.23;;
12818;SDS011;6474;53.474;9.894;2023-12-14T14:01:31;0.80;;;0.80;;
12818;SDS011;6474;53.474;9.894;2023-12-14T14:03:59;1.07;;;1.07;;
12818;SDS011;6474;53.474;9.894;2023-12-14T14:06:27;1.20;;;1.20;;
12818;SDS011;6474;53.474;9.894;2023-12-14T14:08:56;5.13;;;1.43;;
12818;SDS011;6474;53.474;9.894;2023-12-14T14:11:24;1.40;;;1.30;;
12818;SDS011;6474;53.474;9.894;2023-12-14T14:13:52;1.40;;;1.40;;
12818;SDS011;6474;53.474;9.894;2023-12-14T14:16:20;0.87;;;0.87;;
12818;SDS011;6474;53.474;9.894;2023-12-14T14:18:50;1.37;;;1.37;;
12818;SDS011;6474;53.474;9.894;2023-12-14T14:21:18;1.13;;;1.13;;
12818;SDS011;6474;53.474;9.894;2023-12-14T14:23:46;1.97;;;1.87;;
12818;SDS011;6474;53.474;9.894;2023-12-14T14:26:15;1.03;;;1.03;;
12818;SDS011;6474;53.474;9.894;2023-12-14T14:28:43;6.63;;;1.20;;
12818;SDS011;6474;53.474;9.894;2023-12-14T14:31:14;0.97;;;0.83;;
12818;SDS011;6474;53.474;9.894;2023-12-14T14:33:42;1.07;;;1.07;;
12818;SDS011;6474;53.474;9.894;2023-12-14T14:36:13;1.10;;;1.10;;
12818;SDS011;6474;53.474;9.894;2023-12-14T14:38:41;0.70;;;0.70;;
12818;SDS011;6474;53.474;9.894;2023-12-14T14:41:09;1.10;;;1.10;;
12818;SDS011;6474;53.474;9.894;2023-12-14T14:43:38;0.93;;;0.77;;
12818;SDS011;6474;53.474;9.894;2023-12-14T14:46:06;1.60;;;1.20;;
12818;SDS011;6474;53.474;9.894;2023-12-14T14:48:34;3.23;;;1.07;;
12818;SDS011;6474;53.474;9.894;2023-12-14T14:51:04;0.97;;;0.93;;
12818;SDS011;6474;53.474;9.894;2023-12-14T14:53:35;2.00;;;1.50;;
12818;SDS011;6474;53.474;9.894;2023-12-14T14:56:04;1.43;;;1.33;;
12818;SDS011;6474;53.474;9.894;2023-12-14T14:58:32;2.00;;;1.57;;
12818;SDS011;6474;53.474;9.894;2023-12-14T15:01:01;1.60;;;1.43;;
12818;SDS011;6474;53.474;9.894;2023-12-14T15:03:29;2.20;;;1.40;;
12818;SDS011;6474;53.474;9.894;2023-12-14T15:05:57;7.97;;;1.73;;
12818;SDS011;6474;53.474;9.894;2023-12-14T15:08:25;2.10;;;1.30;;
12818;SDS011;6474;53.474;9.894;2023-12-14T15:10:53;8.17;;;1.50;;